KCNI

Cherokee County Airport

Canton, Georgia, USA
METAR KCNI 221410Z AUTO 07003KT 10SM CLR 11/02 A3036 RMK AO2
Observed Flight Rules
Oct-22 @ 14:10 UTC (32 minutes ago) Visual Flight Rules
Wind Visibility Clouds
70° at 3 knots 10 miles
  • Clear skies
Temperatures Readings
Current 11°C / 52°F
Dewpoint 2°C / 36°F
Humidity 54%
Altimeter 30.36" Hg
Pressure 1028 hPa
Elevation 372
METAR KCNI 221410Z AUTO 07003KT 10SM CLR 11/02 A3036 RMK AO2
Observed Flight Rules
Oct-22 @ 14:10 UTC
(32 minutes ago)
VFR
Wind Visibility
70° at 3 knots 10 miles
Clouds
  • Clear skies
Temperature Dewpoint
11°C / 52°F 2°C / 36°F
Humidity Altimeter Pressure
54% 30.36" Hg 1028 hPa